sensor_id;sensor_type;location;lat;lon;timestamp;pressure;altitude;pressure_sealevel;temperature;humidity
62548;BME280;48602;45.192;5.722;2022-08-04T00:00:10;98976.81;;;29.20;35.09
62548;BME280;48602;45.192;5.722;2022-08-04T00:08:10;98982.31;;;29.11;35.42
62548;BME280;48602;45.192;5.722;2022-08-04T00:10:52;98986.25;;;29.09;35.47
62548;BME280;48602;45.192;5.722;2022-08-04T00:13:22;98987.28;;;29.08;35.51
62548;BME280;48602;45.192;5.722;2022-08-04T00:15:52;98992.22;;;29.04;35.99
62548;BME280;48602;45.192;5.722;2022-08-04T00:18:22;98986.97;;;29.03;35.28
62548;BME280;48602;45.192;5.722;2022-08-04T00:20:54;98981.53;;;29.03;35.24
62548;BME280;48602;45.192;5.722;2022-08-04T00:23:22;98988.84;;;29.02;35.84
62548;BME280;48602;45.192;5.722;2022-08-04T00:25:49;98986.19;;;28.94;35.94
62548;BME280;48602;45.192;5.722;2022-08-04T00:28:15;98981.97;;;28.92;36.05
62548;BME280;48602;45.192;5.722;2022-08-04T00:30:41;98990.13;;;28.92;35.78
62548;BME280;48602;45.192;5.722;2022-08-04T00:33:07;98984.69;;;28.92;35.53
62548;BME280;48602;45.192;5.722;2022-08-04T00:35:33;98975.88;;;28.90;35.60
62548;BME280;48602;45.192;5.722;2022-08-04T00:37:59;98979.63;;;28.89;35.82
62548;BME280;48602;45.192;5.722;2022-08-04T00:43:27;98980.34;;;28.82;36.04
62548;BME280;48602;45.192;5.722;2022-08-04T00:46:12;98987.00;;;28.80;35.96
62548;BME280;48602;45.192;5.722;2022-08-04T00:51:47;98988.69;;;28.73;36.14
62548;BME280;48602;45.192;5.722;2022-08-04T00:57:17;98982.53;;;28.56;36.52
62548;BME280;48602;45.192;5.722;2022-08-04T01:02:16;98997.22;;;28.39;36.88
62548;BME280;48602;45.192;5.722;2022-08-04T01:05:11;98995.59;;;28.30;36.74
62548;BME280;48602;45.192;5.722;2022-08-04T01:08:10;98998.16;;;28.23;36.89
62548;BME280;48602;45.192;5.722;2022-08-04T01:10:52;98993.22;;;28.19;36.67
62548;BME280;48602;45.192;5.722;2022-08-04T01:16:24;99001.75;;;28.07;37.18
62548;BME280;48602;45.192;5.722;2022-08-04T01:18:59;99000.22;;;28.05;37.53
62548;BME280;48602;45.192;5.722;2022-08-04T01:24:29;99004.50;;;27.91;37.63
62548;BME280;48602;45.192;5.722;2022-08-04T01:27:09;99009.59;;;27.86;37.67
62548;BME280;48602;45.192;5.722;2022-08-04T01:29:50;99010.16;;;27.82;38.39
62548;BME280;48602;45.192;5.722;2022-08-04T01:32:19;99007.63;;;27.80;38.38
62548;BME280;48602;45.192;5.722;2022-08-04T01:35:00;99008.78;;;27.77;38.55
62548;BME280;48602;45.192;5.722;2022-08-04T01:40:13;99003.38;;;27.77;37.70
62548;BME280;48602;45.192;5.722;2022-08-04T01:42:40;99008.97;;;27.76;37.80
62548;BME280;48602;45.192;5.722;2022-08-04T01:45:08;99004.41;;;27.76;37.68
62548;BME280;48602;45.192;5.722;2022-08-04T01:47:36;99005.41;;;27.75;38.14
62548;BME280;48602;45.192;5.722;2022-08-04T01:50:06;99013.38;;;27.77;38.80
62548;BME280;48602;45.192;5.722;2022-08-04T01:52:37;99010.00;;;27.75;39.18
62548;BME280;48602;45.192;5.722;2022-08-04T01:55:04;99016.09;;;27.69;39.05
62548;BME280;48602;45.192;5.722;2022-08-04T01:57:32;99013.25;;;27.62;39.13
62548;BME280;48602;45.192;5.722;2022-08-04T02:00:00;99028.31;;;27.57;39.33
62548;BME280;48602;45.192;5.722;2022-08-04T02:02:25;99011.84;;;27.50;39.67
62548;BME280;48602;45.192;5.722;2022-08-04T02:04:51;99014.94;;;27.47;39.90
62548;BME280;48602;45.192;5.722;2022-08-04T02:13:09;99013.75;;;27.33;40.37
62548;BME280;48602;45.192;5.722;2022-08-04T02:15:57;99017.31;;;27.26;40.41
62548;BME280;48602;45.192;5.722;2022-08-04T02:18:49;99004.13;;;27.23;40.67
62548;BME280;48602;45.192;5.722;2022-08-04T02:21:18;99015.44;;;27.18;40.55
62548;BME280;48602;45.192;5.722;2022-08-04T02:23:46;99009.53;;;27.15;40.57
62548;BME280;48602;45.192;5.722;2022-08-04T02:26:25;99008.03;;;27.12;40.53
62548;BME280;48602;45.192;5.722;2022-08-04T02:31:42;99016.31;;;27.10;40.83
62548;BME280;48602;45.192;5.722;2022-08-04T02:34:27;99016.13;;;27.04;40.52
62548;BME280;48602;45.192;5.722;2022-08-04T02:36:53;99011.72;;;26.95;41.01
62548;BME280;48602;45.192;5.722;2022-08-04T02:39:19;99017.16;;;26.95;41.63
62548;BME280;48602;45.192;5.722;2022-08-04T02:41:46;99022.84;;;26.92;41.69
62548;BME280;48602;45.192;5.722;2022-08-04T02:44:13;99017.44;;;26.92;41.17
62548;BME280;48602;45.192;5.722;2022-08-04T02:46:45;99018.28;;;26.92;41.44
62548;BME280;48602;45.192;5.722;2022-08-04T02:49:10;99014.91;;;26.90;41.38
62548;BME280;48602;45.192;5.722;2022-08-04T02:51:41;99014.22;;;26.88;41.85
62548;BME280;48602;45.192;5.722;2022-08-04T02:54:07;99013.38;;;26.88;41.23
62548;BME280;48602;45.192;5.722;2022-08-04T02:56:35;99025.88;;;26.89;41.25
62548;BME280;48602;45.192;5.722;2022-08-04T02:59:11;99022.00;;;26.91;41.00
62548;BME280;48602;45.192;5.722;2022-08-04T03:01:38;99016.75;;;26.90;41.59
62548;BME280;48602;45.192;5.722;2022-08-04T03:04:17;99017.94;;;26.87;42.09
62548;BME280;48602;45.192;5.722;2022-08-04T03:18:43;99019.09;;;26.60;41.94
62548;BME280;48602;45.192;5.722;2022-08-04T03:24:43;99010.63;;;26.55;42.95
62548;BME280;48602;45.192;5.722;2022-08-04T03:42:57;99005.41;;;26.62;42.27
62548;BME280;48602;45.192;5.722;2022-08-04T03:48:29;99004.03;;;26.66;42.11
62548;BME280;48602;45.192;5.722;2022-08-04T04:07:21;99012.50;;;26.71;42.70
62548;BME280;48602;45.192;5.722;2022-08-04T04:12:57;99007.94;;;26.71;42.85
62548;BME280;48602;45.192;5.722;2022-08-04T04:37:56;99019.22;;;26.51;42.68
62548;BME280;48602;45.192;5.722;2022-08-04T04:51:32;99022.47;;;26.62;43.16
62548;BME280;48602;45.192;5.722;2022-08-04T04:54:12;99024.81;;;26.65;43.21
62548;BME280;48602;45.192;5.722;2022-08-04T04:56:49;99027.22;;;26.68;43.02
62548;BME280;48602;45.192;5.722;2022-08-04T04:59:21;99018.41;;;26.66;42.89
62548;BME280;48602;45.192;5.722;2022-08-04T05:07:29;99023.50;;;26.69;43.14
62548;BME280;48602;45.192;5.722;2022-08-04T05:15:06;99022.34;;;26.80;43.31
62548;BME280;48602;45.192;5.722;2022-08-04T05:17:42;99029.09;;;26.84;43.57
62548;BME280;48602;45.192;5.722;2022-08-04T05:20:15;99027.91;;;26.87;43.56
62548;BME280;48602;45.192;5.722;2022-08-04T05:23:04;99037.72;;;26.88;43.70
62548;BME280;48602;45.192;5.722;2022-08-04T05:25:39;99036.72;;;26.89;43.71
62548;BME280;48602;45.192;5.722;2022-08-04T05:28:25;99035.88;;;26.88;43.75
62548;BME280;48602;45.192;5.722;2022-08-04T05:30:58;99047.69;;;26.87;43.71
62548;BME280;48602;45.192;5.722;2022-08-04T05:33:38;99040.59;;;26.86;44.04
62548;BME280;48602;45.192;5.722;2022-08-04T05:36:16;99044.47;;;26.84;43.79
62548;BME280;48602;45.192;5.722;2022-08-04T05:38:42;99044.63;;;26.82;43.64
62548;BME280;48602;45.192;5.722;2022-08-04T05:41:09;99040.44;;;26.80;43.71
62548;BME280;48602;45.192;5.722;2022-08-04T05:43:42;99035.88;;;26.80;44.20
62548;BME280;48602;45.192;5.722;2022-08-04T05:46:10;99039.41;;;26.81;43.91
62548;BME280;48602;45.192;5.722;2022-08-04T05:48:36;99049.41;;;26.80;44.03
62548;BME280;48602;45.192;5.722;2022-08-04T05:51:02;99041.44;;;26.79;43.92
62548;BME280;48602;45.192;5.722;2022-08-04T05:53:29;99045.31;;;26.76;44.34
62548;BME280;48602;45.192;5.722;2022-08-04T05:55:56;99045.47;;;26.74;44.25
62548;BME280;48602;45.192;5.722;2022-08-04T05:58:22;99048.34;;;26.73;44.12
62548;BME280;48602;45.192;5.722;2022-08-04T06:00:50;99047.66;;;26.71;44.44
62548;BME280;48602;45.192;5.722;2022-08-04T06:03:18;99051.38;;;26.70;44.47
62548;BME280;48602;45.192;5.722;2022-08-04T06:05:45;99046.31;;;26.67;44.77
62548;BME280;48602;45.192;5.722;2022-08-04T06:08:11;99047.16;;;26.67;44.63
62548;BME280;48602;45.192;5.722;2022-08-04T06:10:37;99044.59;;;26.66;44.76
62548;BME280;48602;45.192;5.722;2022-08-04T06:13:10;99043.75;;;26.65;44.68
62548;BME280;48602;45.192;5.722;2022-08-04T06:15:39;99050.00;;;26.66;44.56
62548;BME280;48602;45.192;5.722;2022-08-04T06:18:08;99052.72;;;26.66;44.65
62548;BME280;48602;45.192;5.722;2022-08-04T06:20:37;99058.13;;;26.66;44.67
62548;BME280;48602;45.192;5.722;2022-08-04T06:23:06;99057.13;;;26.67;44.87
62548;BME280;48602;45.192;5.722;2022-08-04T06:25:45;99053.56;;;26.66;44.83
62548;BME280;48602;45.192;5.722;2022-08-04T06:28:12;99054.41;;;26.67;44.98
62548;BME280;48602;45.192;5.722;2022-08-04T06:30:39;99060.50;;;26.69;44.97
62548;BME280;48602;45.192;5.722;2022-08-04T06:33:07;99062.19;;;26.70;44.87
62548;BME280;48602;45.192;5.722;2022-08-04T06:35:52;99062.72;;;26.73;44.94
62548;BME280;48602;45.192;5.722;2022-08-04T06:38:24;99062.41;;;26.76;44.70
62548;BME280;48602;45.192;5.722;2022-08-04T06:40:52;99060.03;;;26.82;44.99
62548;BME280;48602;45.192;5.722;2022-08-04T06:43:18;99063.25;;;26.85;44.79
62548;BME280;48602;45.192;5.722;2022-08-04T06:45:46;99059.19;;;26.89;44.89
62548;BME280;48602;45.192;5.722;2022-08-04T06:48:15;99065.84;;;26.95;44.72
62548;BME280;48602;45.192;5.722;2022-08-04T06:50:42;99060.94;;;26.98;44.72
62548;BME280;48602;45.192;5.722;2022-08-04T06:53:09;99064.00;;;27.03;44.36
62548;BME280;48602;45.192;5.722;2022-08-04T06:55:36;99069.06;;;27.06;44.68
62548;BME280;48602;45.192;5.722;2022-08-04T06:58:03;99073.13;;;27.10;44.46
62548;BME280;48602;45.192;5.722;2022-08-04T07:00:30;99070.75;;;27.16;44.28
62548;BME280;48602;45.192;5.722;2022-08-04T07:02:56;99072.13;;;27.20;44.36
62548;BME280;48602;45.192;5.722;2022-08-04T07:05:22;99068.75;;;27.26;44.10
62548;BME280;48602;45.192;5.722;2022-08-04T07:07:48;99063.50;;;27.32;43.69
62548;BME280;48602;45.192;5.722;2022-08-04T07:10:14;99068.22;;;27.38;43.38
62548;BME280;48602;45.192;5.722;2022-08-04T07:12:41;99068.59;;;27.43;43.52
62548;BME280;48602;45.192;5.722;2022-08-04T07:15:08;99061.44;;;27.51;43.01
62548;BME280;48602;45.192;5.722;2022-08-04T07:17:35;99062.50;;;27.58;43.36
62548;BME280;48602;45.192;5.722;2022-08-04T07:20:03;99063.53;;;27.65;43.06
62548;BME280;48602;45.192;5.722;2022-08-04T07:22:29;99066.38;;;27.71;42.69
62548;BME280;48602;45.192;5.722;2022-08-04T07:24:57;99068.22;;;27.79;42.90
62548;BME280;48602;45.192;5.722;2022-08-04T07:27:24;99064.66;;;27.87;42.70
62548;BME280;48602;45.192;5.722;2022-08-04T07:29:50;99053.13;;;27.93;42.63
62548;BME280;48602;45.192;5.722;2022-08-04T07:32:18;99063.94;;;28.01;42.60
62548;BME280;48602;45.192;5.722;2022-08-04T07:34:46;99056.81;;;28.08;42.36
62548;BME280;48602;45.192;5.722;2022-08-04T07:37:12;99065.94;;;28.15;41.66
62548;BME280;48602;45.192;5.722;2022-08-04T07:39:39;99062.72;;;28.20;41.94
62548;BME280;48602;45.192;5.722;2022-08-04T07:42:04;99057.63;;;28.25;41.92
62548;BME280;48602;45.192;5.722;2022-08-04T07:44:31;99060.00;;;28.28;41.52
62548;BME280;48602;45.192;5.722;2022-08-04T07:46:58;99061.13;;;28.33;41.41
62548;BME280;48602;45.192;5.722;2022-08-04T07:49:24;99053.31;;;28.38;41.46
62548;BME280;48602;45.192;5.722;2022-08-04T07:51:51;99053.47;;;28.45;41.16
62548;BME280;48602;45.192;5.722;2022-08-04T07:54:18;99054.59;;;28.51;40.99
62548;BME280;48602;45.192;5.722;2022-08-04T07:56:44;99051.03;;;28.58;41.21
62548;BME280;48602;45.192;5.722;2022-08-04T07:59:10;99049.09;;;28.67;40.75
62548;BME280;48602;45.192;5.722;2022-08-04T08:01:36;99042.97;;;28.73;40.95
62548;BME280;48602;45.192;5.722;2022-08-04T08:04:05;99045.84;;;28.79;40.44
62548;BME280;48602;45.192;5.722;2022-08-04T08:06:34;99045.97;;;28.86;40.62
62548;BME280;48602;45.192;5.722;2022-08-04T08:09:02;99047.97;;;28.92;40.12
62548;BME280;48602;45.192;5.722;2022-08-04T08:11:30;99048.09;;;28.99;40.27
62548;BME280;48602;45.192;5.722;2022-08-04T08:13:56;99051.75;;;29.06;40.07
62548;BME280;48602;45.192;5.722;2022-08-04T08:16:22;99043.75;;;29.12;39.81
62548;BME280;48602;45.192;5.722;2022-08-04T08:18:47;99042.16;;;29.18;40.24
62548;BME280;48602;45.192;5.722;2022-08-04T08:21:13;99039.56;;;29.25;39.33
62548;BME280;48602;45.192;5.722;2022-08-04T08:23:39;99039.47;;;29.33;40.05
62548;BME280;48602;45.192;5.722;2022-08-04T08:26:05;99030.47;;;29.40;39.02
62548;BME280;48602;45.192;5.722;2022-08-04T08:28:31;99034.31;;;29.46;39.41
62548;BME280;48602;45.192;5.722;2022-08-04T08:30:56;99023.91;;;29.49;39.56
62548;BME280;48602;45.192;5.722;2022-08-04T08:33:23;99023.19;;;29.56;38.58
62548;BME280;48602;45.192;5.722;2022-08-04T08:38:44;99024.22;;;29.69;38.86
62548;BME280;48602;45.192;5.722;2022-08-04T08:47:07;99008.78;;;29.84;37.72
62548;BME280;48602;45.192;5.722;2022-08-04T08:55:28;99012.72;;;29.97;37.62
62548;BME280;48602;45.192;5.722;2022-08-04T09:09:04;98988.81;;;30.22;36.81
62548;BME280;48602;45.192;5.722;2022-08-04T09:11:55;98998.56;;;30.31;36.68
62548;BME280;48602;45.192;5.722;2022-08-04T09:14:54;98991.13;;;30.39;36.43
62548;BME280;48602;45.192;5.722;2022-08-04T09:17:22;98987.03;;;30.50;36.52
62548;BME280;48602;45.192;5.722;2022-08-04T09:20:02;98989.69;;;30.58;36.28
62548;BME280;48602;45.192;5.722;2022-08-04T09:27:49;98982.22;;;30.81;36.19
62548;BME280;48602;45.192;5.722;2022-08-04T09:30:18;98980.19;;;30.90;36.91
62548;BME280;48602;45.192;5.722;2022-08-04T09:32:57;98989.69;;;31.01;35.79
62548;BME280;48602;45.192;5.722;2022-08-04T09:41:01;98972.31;;;31.16;35.44
62548;BME280;48602;45.192;5.722;2022-08-04T09:43:50;98971.31;;;31.24;35.43
62548;BME280;48602;45.192;5.722;2022-08-04T09:46:28;98972.41;;;31.30;35.70
62548;BME280;48602;45.192;5.722;2022-08-04T09:49:02;98968.44;;;31.32;35.35
62548;BME280;48602;45.192;5.722;2022-08-04T09:54:06;98963.09;;;31.45;35.36
62548;BME280;48602;45.192;5.722;2022-08-04T09:56:47;98959.53;;;31.51;35.31
62548;BME280;48602;45.192;5.722;2022-08-04T09:59:42;98953.75;;;31.61;35.16
62548;BME280;48602;45.192;5.722;2022-08-04T10:02:12;98957.59;;;31.67;35.47
62548;BME280;48602;45.192;5.722;2022-08-04T10:04:41;98949.66;;;31.72;35.51
62548;BME280;48602;45.192;5.722;2022-08-04T10:07:23;98945.09;;;31.79;35.85
62548;BME280;48602;45.192;5.722;2022-08-04T10:18:10;98932.84;;;32.09;35.52
62548;BME280;48602;45.192;5.722;2022-08-04T10:20:50;98936.66;;;32.15;35.20
62548;BME280;48602;45.192;5.722;2022-08-04T10:28:50;98923.72;;;32.37;34.97
62548;BME280;48602;45.192;5.722;2022-08-04T10:31:27;98921.22;;;32.42;34.44
62548;BME280;48602;45.192;5.722;2022-08-04T10:34:02;98922.31;;;32.47;34.15
62548;BME280;48602;45.192;5.722;2022-08-04T10:36:47;98905.50;;;32.57;34.10
62548;BME280;48602;45.192;5.722;2022-08-04T10:39:17;98904.69;;;32.70;34.09
62548;BME280;48602;45.192;5.722;2022-08-04T10:42:09;98899.50;;;32.81;33.58
62548;BME280;48602;45.192;5.722;2022-08-04T10:44:50;98902.84;;;32.90;33.69
62548;BME280;48602;45.192;5.722;2022-08-04T10:47:24;98900.97;;;32.97;33.38
62548;BME280;48602;45.192;5.722;2022-08-04T10:49:55;98894.03;;;33.01;33.03
62548;BME280;48602;45.192;5.722;2022-08-04T10:52:33;98895.69;;;33.09;31.86
62548;BME280;48602;45.192;5.722;2022-08-04T10:55:07;98879.31;;;33.15;32.39
62548;BME280;48602;45.192;5.722;2022-08-04T10:57:47;98884.56;;;33.30;32.38
62548;BME280;48602;45.192;5.722;2022-08-04T11:00:20;98878.84;;;33.38;32.04
62548;BME280;48602;45.192;5.722;2022-08-04T11:05:34;98883.47;;;33.51;31.16
62548;BME280;48602;45.192;5.722;2022-08-04T11:08:04;98884.50;;;33.56;30.41
62548;BME280;48602;45.192;5.722;2022-08-04T11:10:34;98877.13;;;33.63;30.59
62548;BME280;48602;45.192;5.722;2022-08-04T11:13:05;98870.34;;;33.73;30.27
62548;BME280;48602;45.192;5.722;2022-08-04T11:15:47;98887.41;;;33.81;29.82
62548;BME280;48602;45.192;5.722;2022-08-04T11:18:39;98875.97;;;33.91;29.89
62548;BME280;48602;45.192;5.722;2022-08-04T11:21:17;98870.66;;;34.03;29.74
62548;BME280;48602;45.192;5.722;2022-08-04T11:23:50;98871.66;;;34.15;29.57
62548;BME280;48602;45.192;5.722;2022-08-04T11:26:26;98872.47;;;34.28;28.72
62548;BME280;48602;45.192;5.722;2022-08-04T11:29:00;98859.72;;;34.41;29.06
62548;BME280;48602;45.192;5.722;2022-08-04T11:31:35;98859.19;;;34.57;27.87
62548;BME280;48602;45.192;5.722;2022-08-04T11:34:22;98847.28;;;34.70;28.05
62548;BME280;48602;45.192;5.722;2022-08-04T11:36:50;98849.13;;;34.82;27.47
62548;BME280;48602;45.192;5.722;2022-08-04T11:44:48;98838.97;;;35.08;27.07
62548;BME280;48602;45.192;5.722;2022-08-04T11:49:55;98838.72;;;35.16;27.49
62548;BME280;48602;45.192;5.722;2022-08-04T11:52:23;98834.59;;;35.25;27.20
62548;BME280;48602;45.192;5.722;2022-08-04T11:54:50;98819.56;;;35.34;26.50
62548;BME280;48602;45.192;5.722;2022-08-04T11:57:16;98837.38;;;35.43;27.26
62548;BME280;48602;45.192;5.722;2022-08-04T11:59:42;98827.84;;;35.46;27.27
62548;BME280;48602;45.192;5.722;2022-08-04T12:04:55;98823.16;;;35.35;26.77
62548;BME280;48602;45.192;5.722;2022-08-04T12:10:46;98814.09;;;35.34;27.16
62548;BME280;48602;45.192;5.722;2022-08-04T12:18:37;98831.72;;;35.56;27.12
62548;BME280;48602;45.192;5.722;2022-08-04T12:21:22;98814.59;;;35.61;27.23
62548;BME280;48602;45.192;5.722;2022-08-04T12:23:52;98806.75;;;35.64;26.83
62548;BME280;48602;45.192;5.722;2022-08-04T12:26:26;98805.22;;;35.68;26.35
62548;BME280;48602;45.192;5.722;2022-08-04T12:28:58;98804.50;;;35.73;26.06
62548;BME280;48602;45.192;5.722;2022-08-04T12:31:26;98800.03;;;35.79;26.34
62548;BME280;48602;45.192;5.722;2022-08-04T12:34:16;98821.31;;;35.83;25.38
62548;BME280;48602;45.192;5.722;2022-08-04T12:36:54;98796.97;;;35.87;25.56
62548;BME280;48602;45.192;5.722;2022-08-04T12:39:24;98783.16;;;35.93;25.27
62548;BME280;48602;45.192;5.722;2022-08-04T12:42:00;98781.16;;;36.00;25.05
62548;BME280;48602;45.192;5.722;2022-08-04T12:44:36;98785.47;;;36.08;24.93
62548;BME280;48602;45.192;5.722;2022-08-04T12:47:06;98776.69;;;36.18;24.12
62548;BME280;48602;45.192;5.722;2022-08-04T12:49:34;98771.09;;;36.24;23.83
62548;BME280;48602;45.192;5.722;2022-08-04T12:52:04;98789.53;;;36.35;24.77
62548;BME280;48602;45.192;5.722;2022-08-04T12:54:32;98783.44;;;36.45;24.51
62548;BME280;48602;45.192;5.722;2022-08-04T12:57:03;98774.28;;;36.51;23.97
62548;BME280;48602;45.192;5.722;2022-08-04T12:59:36;98784.31;;;36.57;24.84
62548;BME280;48602;45.192;5.722;2022-08-04T13:02:03;98777.97;;;36.57;24.11
62548;BME280;48602;45.192;5.722;2022-08-04T13:04:29;98772.47;;;36.57;24.34
62548;BME280;48602;45.192;5.722;2022-08-04T13:07:00;98769.38;;;36.53;24.00
62548;BME280;48602;45.192;5.722;2022-08-04T13:09:32;98773.06;;;36.47;23.57
62548;BME280;48602;45.192;5.722;2022-08-04T13:12:04;98772.94;;;36.42;23.67
62548;BME280;48602;45.192;5.722;2022-08-04T13:14:35;98773.41;;;36.39;23.12
62548;BME280;48602;45.192;5.722;2022-08-04T13:17:02;98767.56;;;36.35;23.67
62548;BME280;48602;45.192;5.722;2022-08-04T13:19:31;98761.25;;;36.35;23.38
62548;BME280;48602;45.192;5.722;2022-08-04T13:21:56;98766.72;;;36.35;23.50
62548;BME280;48602;45.192;5.722;2022-08-04T13:24:25;98761.81;;;36.37;23.00
62548;BME280;48602;45.192;5.722;2022-08-04T13:27:05;98758.59;;;36.40;23.72
62548;BME280;48602;45.192;5.722;2022-08-04T13:29:37;98765.06;;;36.46;23.50
62548;BME280;48602;45.192;5.722;2022-08-04T13:32:04;98766.03;;;36.51;24.14
62548;BME280;48602;45.192;5.722;2022-08-04T13:34:32;98767.81;;;36.57;23.45
62548;BME280;48602;45.192;5.722;2022-08-04T13:37:00;98771.88;;;36.55;23.85
62548;BME280;48602;45.192;5.722;2022-08-04T13:39:27;98769.84;;;36.50;23.98
62548;BME280;48602;45.192;5.722;2022-08-04T13:41:54;98770.09;;;36.49;23.58
62548;BME280;48602;45.192;5.722;2022-08-04T13:44:30;98764.47;;;36.44;23.80
62548;BME280;48602;45.192;5.722;2022-08-04T13:47:05;98771.03;;;36.43;23.54
62548;BME280;48602;45.192;5.722;2022-08-04T13:49:31;98765.41;;;36.38;23.19
62548;BME280;48602;45.192;5.722;2022-08-04T13:52:00;98762.91;;;36.36;23.85
62548;BME280;48602;45.192;5.722;2022-08-04T13:57:07;98764.31;;;36.39;24.06
62548;BME280;48602;45.192;5.722;2022-08-04T13:59:36;98761.34;;;36.40;24.62
62548;BME280;48602;45.192;5.722;2022-08-04T14:02:08;98767.69;;;36.41;24.53
62548;BME280;48602;45.192;5.722;2022-08-04T14:04:50;98764.69;;;36.42;24.31
62548;BME280;48602;45.192;5.722;2022-08-04T14:07:17;98767.44;;;36.42;25.01
62548;BME280;48602;45.192;5.722;2022-08-04T14:09:43;98773.63;;;36.38;24.43
62548;BME280;48602;45.192;5.722;2022-08-04T14:12:11;98763.75;;;36.37;25.13
62548;BME280;48602;45.192;5.722;2022-08-04T14:14:48;98766.00;;;36.40;25.09
62548;BME280;48602;45.192;5.722;2022-08-04T14:17:16;98767.44;;;36.42;25.64
62548;BME280;48602;45.192;5.722;2022-08-04T14:27:46;98765.44;;;36.49;26.67
62548;BME280;48602;45.192;5.722;2022-08-04T14:30:29;98772.25;;;36.47;26.98
62548;BME280;48602;45.192;5.722;2022-08-04T14:33:11;98777.13;;;36.45;26.86
62548;BME280;48602;45.192;5.722;2022-08-04T14:35:37;98771.03;;;36.43;27.00
62548;BME280;48602;45.192;5.722;2022-08-04T14:38:06;98773.41;;;36.39;27.12
62548;BME280;48602;45.192;5.722;2022-08-04T14:40:37;98774.75;;;36.37;27.94
62548;BME280;48602;45.192;5.722;2022-08-04T14:43:04;98777.22;;;36.38;27.71
62548;BME280;48602;45.192;5.722;2022-08-04T14:45:39;98773.31;;;36.57;27.24
62548;BME280;48602;45.192;5.722;2022-08-04T14:48:14;98773.00;;;36.77;27.03
62548;BME280;48602;45.192;5.722;2022-08-04T14:50:44;98766.09;;;36.86;27.13
62548;BME280;48602;45.192;5.722;2022-08-04T14:53:14;98765.34;;;36.91;26.95
62548;BME280;48602;45.192;5.722;2022-08-04T14:55:50;98763.19;;;36.93;27.35
62548;BME280;48602;45.192;5.722;2022-08-04T14:58:20;98763.44;;;36.91;27.41
62548;BME280;48602;45.192;5.722;2022-08-04T15:00:47;98771.44;;;36.93;27.29
62548;BME280;48602;45.192;5.722;2022-08-04T15:03:12;98766.31;;;36.96;27.04
62548;BME280;48602;45.192;5.722;2022-08-04T15:05:41;98777.66;;;37.00;27.18
62548;BME280;48602;45.192;5.722;2022-08-04T15:08:08;98785.41;;;37.15;27.14
62548;BME280;48602;45.192;5.722;2022-08-04T15:10:34;98779.22;;;37.19;27.31
62548;BME280;48602;45.192;5.722;2022-08-04T15:13:01;98783.22;;;37.40;27.15
62548;BME280;48602;45.192;5.722;2022-08-04T15:15:27;98784.63;;;37.54;26.93
62548;BME280;48602;45.192;5.722;2022-08-04T15:17:54;98778.81;;;37.51;27.56
62548;BME280;48602;45.192;5.722;2022-08-04T15:20:20;98772.59;;;37.44;27.16
62548;BME280;48602;45.192;5.722;2022-08-04T15:22:46;98775.38;;;37.32;27.45
62548;BME280;48602;45.192;5.722;2022-08-04T15:25:11;98775.03;;;37.28;27.05
62548;BME280;48602;45.192;5.722;2022-08-04T15:27:38;98771.91;;;37.25;27.36
62548;BME280;48602;45.192;5.722;2022-08-04T15:30:09;98774.19;;;37.16;27.23
62548;BME280;48602;45.192;5.722;2022-08-04T15:32:41;98777.28;;;37.08;27.49
62548;BME280;48602;45.192;5.722;2022-08-04T15:35:10;98782.69;;;37.03;27.16
62548;BME280;48602;45.192;5.722;2022-08-04T15:40:34;98778.75;;;36.99;26.73
62548;BME280;48602;45.192;5.722;2022-08-04T15:45:50;98779.56;;;36.99;27.13
62548;BME280;48602;45.192;5.722;2022-08-04T15:53:26;98788.63;;;36.88;26.88
62548;BME280;48602;45.192;5.722;2022-08-04T15:55:52;98787.09;;;36.92;26.67
62548;BME280;48602;45.192;5.722;2022-08-04T15:58:19;98787.22;;;36.97;26.65
62548;BME280;48602;45.192;5.722;2022-08-04T16:11:38;98782.78;;;38.12;26.07
62548;BME280;48602;45.192;5.722;2022-08-04T16:14:08;98786.41;;;38.00;25.69
62548;BME280;48602;45.192;5.722;2022-08-04T16:19:26;98784.47;;;37.72;25.96
62548;BME280;48602;45.192;5.722;2022-08-04T16:21:55;98787.28;;;37.49;26.38
62548;BME280;48602;45.192;5.722;2022-08-04T16:24:29;98781.47;;;37.34;26.77
62548;BME280;48602;45.192;5.722;2022-08-04T16:26:59;98774.19;;;37.28;27.55
62548;BME280;48602;45.192;5.722;2022-08-04T16:34:42;98773.25;;;36.99;27.56
62548;BME280;48602;45.192;5.722;2022-08-04T16:37:09;98771.59;;;36.86;27.63
62548;BME280;48602;45.192;5.722;2022-08-04T16:39:36;98768.34;;;36.78;27.68
62548;BME280;48602;45.192;5.722;2022-08-04T16:50:11;98783.13;;;36.65;28.87
62548;BME280;48602;45.192;5.722;2022-08-04T16:52:48;98779.31;;;36.66;28.06
62548;BME280;48602;45.192;5.722;2022-08-04T16:55:18;98792.31;;;36.70;28.69
62548;BME280;48602;45.192;5.722;2022-08-04T16:57:48;98780.28;;;36.95;28.88
62548;BME280;48602;45.192;5.722;2022-08-04T17:00:14;98783.28;;;36.93;28.47
62548;BME280;48602;45.192;5.722;2022-08-04T17:02:41;98779.47;;;36.83;28.63
62548;BME280;48602;45.192;5.722;2022-08-04T17:05:21;98779.78;;;36.63;29.04
62548;BME280;48602;45.192;5.722;2022-08-04T17:07:49;98783.69;;;36.44;28.81
62548;BME280;48602;45.192;5.722;2022-08-04T17:10:15;98782.69;;;36.26;29.25
62548;BME280;48602;45.192;5.722;2022-08-04T17:12:40;98779.38;;;36.06;28.92
62548;BME280;48602;45.192;5.722;2022-08-04T17:15:22;98778.75;;;35.92;29.21
62548;BME280;48602;45.192;5.722;2022-08-04T17:17:48;98780.75;;;35.85;29.86
62548;BME280;48602;45.192;5.722;2022-08-04T17:20:13;98774.25;;;36.10;29.33
62548;BME280;48602;45.192;5.722;2022-08-04T17:22:40;98774.16;;;36.46;28.28
62548;BME280;48602;45.192;5.722;2022-08-04T17:25:06;98769.53;;;36.82;28.03
62548;BME280;48602;45.192;5.722;2022-08-04T17:27:31;98776.34;;;37.26;27.94
62548;BME280;48602;45.192;5.722;2022-08-04T17:29:57;98774.94;;;37.63;27.23
62548;BME280;48602;45.192;5.722;2022-08-04T17:32:23;98773.13;;;37.97;26.85
62548;BME280;48602;45.192;5.722;2022-08-04T17:34:51;98772.84;;;38.11;26.44